Cedral, Brazil
Current Conditions -  °F | °C
As of 8:00 PM on Thursday 27 Nov 2014 (Local Time) from SBSL Reporting Station
Few Clouds Few Clouds  
Wind Chill: 81°   Ceiling: Unl
Heat Index: 83°   Visibility: 6mi
Dew Point: 68°   Wind: 22mph
Humidity: 65%   Direction: 60°ENE
Pressure: 29.85"   Gusts: NA
Location:  2°S, 44.54°W
Report Text: SBSL 272300Z 06019KT 9999 FEW017 27/20 Q1011
Loading
Personal Weather Stations






























Interactive Weather Map New forecast layout! Learn more

10-Day Weather Forecast

Advertisements
Track Severe Weather on mobile